Time;durP1;ratioP1;P1;durP2;ratioP2;P2;SDS_P1;SDS_P2;PMS_P1;PMS_P2;Temp;Humidity;BMP_temperature;BMP_pressure;BME280_temperature;BME280_humidity;BME280_pressure;Samples;Min_cycle;Max_cycle;Signal;HPM_P1;HPM_P2
2024/03/28 00:00:06;;;;;;;18.20;12.90;;;;;;;5.82;80.92;99337.48;105706;1261;68874;-78
2024/03/28 00:02:34;;;;;;;18.70;13.10;;;;;;;5.80;80.91;99330.70;106353;1253;70840;-78
2024/03/28 00:05:01;;;;;;;21.30;12.90;;;;;;;5.77;80.70;99332.71;107037;1254;61637;-76
2024/03/28 00:07:29;;;;;;;18.20;12.60;;;;;;;5.74;80.42;99326.17;105956;1253;61266;-78
2024/03/28 00:09:56;;;;;;;19.10;13.00;;;;;;;5.75;80.49;99323.98;106037;1254;73440;-77
2024/03/28 00:12:23;;;;;;;16.70;11.70;;;;;;;5.85;79.93;99326.34;105741;1253;68690;-78
2024/03/28 00:14:51;;;;;;;17.00;11.70;;;;;;;5.94;79.89;99325.68;105460;1260;72858;-75
2024/03/28 00:17:18;;;;;;;14.70;11.00;;;;;;;5.93;79.84;99321.36;105661;1260;61218;-76
2024/03/28 00:19:46;;;;;;;17.90;12.00;;;;;;;5.91;79.54;99316.63;105609;1254;61279;-77
2024/03/28 00:22:13;;;;;;;16.60;12.50;;;;;;;5.90;79.30;99317.23;105174;1259;73668;-77
2024/03/28 00:24:43;;;;;;;16.30;12.10;;;;;;;5.89;79.31;99318.41;105746;1259;68954;-77
2024/03/28 00:27:11;;;;;;;16.30;10.90;;;;;;;5.89;79.31;99316.30;105620;1254;71595;-76
2024/03/28 00:29:38;;;;;;;15.80;11.10;;;;;;;5.98;78.75;99312.23;105341;1257;61231;-76
2024/03/28 00:32:05;;;;;;;19.20;11.10;;;;;;;6.08;78.38;99319.20;105463;1254;61276;-79
2024/03/28 00:34:58;;;;;;;15.70;11.10;;;;;;;6.11;78.23;99314.91;105918;1253;75026;-77
2024/03/28 00:37:31;;;;;;;16.00;12.40;;;;;;;6.13;78.32;99312.63;105997;1253;72304;-76
2024/03/28 00:39:58;;;;;;;17.00;10.50;;;;;;;6.15;78.15;99312.55;105797;1254;72191;-76
2024/03/28 00:42:25;;;;;;;16.40;11.10;;;;;;;6.16;77.73;99311.10;106036;1253;61389;-77
2024/03/28 00:49:15;;;;;;;13.80;9.90;;;;;;;6.26;76.87;99302.13;107028;1253;73166;-76
2024/03/28 00:51:44;;;;;;;14.60;10.00;;;;;;;6.36;76.35;99297.30;106625;1253;72456;-75
2024/03/28 00:54:12;;;;;;;12.50;9.00;;;;;;;6.36;76.28;99299.41;105814;1255;74173;-75
2024/03/28 00:56:39;;;;;;;13.00;9.20;;;;;;;6.38;75.94;99295.55;106990;1253;61184;-75
2024/03/28 00:59:07;;;;;;;15.00;10.50;;;;;;;6.36;75.76;99289.05;105698;1254;61476;-76
2024/03/28 01:01:34;;;;;;;13.60;9.60;;;;;;;6.35;75.78;99289.67;105930;1259;74659;-76
2024/03/28 01:04:01;;;;;;;13.00;9.50;;;;;;;6.35;75.41;99292.55;105430;1259;68739;-79
2024/03/28 01:06:29;;;;;;;13.90;8.10;;;;;;;6.36;75.09;99283.45;105878;1257;72824;-76
2024/03/28 01:08:56;;;;;;;11.80;8.40;;;;;;;6.46;74.74;99281.02;105680;1259;61247;-78
2024/03/28 01:11:23;;;;;;;10.50;8.70;;;;;;;6.49;74.61;99274.73;105843;1258;61141;-79
2024/03/28 01:13:50;;;;;;;14.40;8.80;;;;;;;6.44;74.37;99267.68;105764;1254;73438;-77
2024/03/28 01:16:18;;;;;;;13.10;8.40;;;;;;;6.37;74.14;99261.55;105848;1254;70280;-77
2024/03/28 01:18:45;;;;;;;12.50;9.10;;;;;;;6.30;74.14;99266.75;105853;1257;71996;-76
2024/03/28 01:21:12;;;;;;;12.60;9.10;;;;;;;6.24;74.45;99264.17;105812;1255;61863;-76
2024/03/28 01:23:40;;;;;;;11.00;8.30;;;;;;;6.21;74.45;99272.80;105591;1254;61420;-78
2024/03/28 01:26:07;;;;;;;12.60;9.00;;;;;;;6.23;74.12;99261.09;105699;1254;73497;-75
2024/03/28 01:28:34;;;;;;;13.60;8.50;;;;;;;6.26;74.08;99263.18;105679;1260;71484;-76
2024/03/28 01:31:03;;;;;;;10.90;8.30;;;;;;;6.24;74.26;99261.27;105321;1253;75315;-75
2024/03/28 01:33:30;;;;;;;10.50;8.00;;;;;;;6.21;74.30;99260.13;105712;1253;61177;-77
2024/03/28 01:44:21;;;;;;;10.30;8.30;;;;;;;6.17;74.55;99257.49;105930;1253;69660;-77
2024/03/28 01:46:49;;;;;;;13.60;8.80;;;;;;;6.27;74.34;99264.97;108023;1260;71363;-75
2024/03/28 01:49:36;;;;;;;12.40;8.20;;;;;;;6.25;74.18;99259.15;108389;1254;60300;-74
2024/03/28 01:52:04;;;;;;;13.40;8.90;;;;;;;6.23;74.33;99257.92;108122;1254;61346;-77
2024/03/28 01:54:36;;;;;;;11.40;7.90;;;;;;;6.23;74.29;99256.42;107909;1256;73557;-75
2024/03/28 01:57:04;;;;;;;13.30;8.80;;;;;;;6.21;74.31;99256.19;108160;1259;71051;-75
2024/03/28 01:59:31;;;;;;;11.30;8.80;;;;;;;6.19;74.34;99254.46;106153;1253;71433;-77
2024/03/28 02:01:59;;;;;;;13.10;8.50;;;;;;;6.25;74.24;99251.47;105706;1257;61301;-74
2024/03/28 02:04:26;;;;;;;9.50;7.30;;;;;;;6.33;74.02;99248.56;105642;1254;61313;-74
2024/03/28 02:06:53;;;;;;;12.10;8.20;;;;;;;6.33;73.81;99246.25;105754;1253;74664;-75
2024/03/28 02:09:21;;;;;;;10.30;7.00;;;;;;;6.31;73.70;99245.55;106143;1254;70843;-73
2024/03/28 02:11:49;;;;;;;11.10;8.00;;;;;;;6.30;73.43;99250.73;105838;1257;71270;-76
2024/03/28 02:14:16;;;;;;;10.00;7.60;;;;;;;6.30;73.09;99246.70;105641;1259;61219;-76
2024/03/28 02:16:43;;;;;;;12.30;7.80;;;;;;;6.29;73.24;99241.77;105567;1255;61362;-73
2024/03/28 02:19:10;;;;;;;8.80;7.10;;;;;;;6.28;73.21;99239.20;105500;1254;74714;-74
2024/03/28 02:21:38;;;;;;;8.70;6.60;;;;;;;6.35;72.84;99236.90;105745;1262;69215;-75
2024/03/28 02:24:06;;;;;;;10.10;7.50;;;;;;;6.43;72.43;99240.15;105577;1257;72368;-75
2024/03/28 02:26:34;;;;;;;11.10;7.40;;;;;;;6.41;72.25;99239.95;106634;1257;61238;-75
2024/03/28 02:29:01;;;;;;;7.90;6.50;;;;;;;6.38;72.16;99236.46;107106;1254;61270;-73
2024/03/28 02:31:28;;;;;;;13.10;8.00;;;;;;;6.36;72.09;99235.10;106430;1259;73328;-74
2024/03/28 02:33:56;;;;;;;10.20;8.00;;;;;;;6.35;71.81;99240.44;105645;1255;70421;-74
2024/03/28 02:36:23;;;;;;;9.60;7.30;;;;;;;6.32;71.64;99244.98;105625;1255;72830;-76
2024/03/28 02:38:50;;;;;;;10.60;7.50;;;;;;;6.28;71.65;99231.75;105465;1259;61288;-75
2024/03/28 02:41:21;;;;;;;9.00;6.80;;;;;;;6.27;71.55;99234.38;105228;1254;61431;-78
2024/03/28 02:43:49;;;;;;;9.30;6.80;;;;;;;6.35;71.55;99232.35;105653;1253;74606;-75
2024/03/28 02:46:16;;;;;;;10.60;7.60;;;;;;;6.42;71.64;99229.52;105752;1254;69153;-73
2024/03/28 02:48:43;;;;;;;9.40;7.70;;;;;;;6.45;71.61;99233.81;105642;1254;72772;-76
2024/03/28 02:51:10;;;;;;;10.90;7.70;;;;;;;6.46;71.42;99229.05;105290;1253;61325;-77
2024/03/28 02:53:38;;;;;;;10.80;6.80;;;;;;;6.48;71.12;99231.70;105825;1254;61162;-73
2024/03/28 02:56:05;;;;;;;9.00;6.90;;;;;;;6.47;70.72;99220.60;105392;1260;74568;-75
2024/03/28 02:58:32;;;;;;;11.00;7.60;;;;;;;6.45;70.48;99217.98;105362;1253;70301;-76
2024/03/28 03:01:03;;;;;;;10.80;6.70;;;;;;;6.43;70.20;99219.03;105430;1260;72540;-75
2024/03/28 03:03:30;;;;;;;9.40;7.10;;;;;;;6.43;70.08;99215.20;105283;1261;61436;-75
2024/03/28 03:05:57;;;;;;;8.30;6.70;;;;;;;6.42;69.95;99217.08;105312;1256;61446;-74
2024/03/28 03:08:25;;;;;;;8.50;6.50;;;;;;;6.38;69.62;99220.22;105459;1256;72919;-77
2024/03/28 03:10:52;;;;;;;9.30;6.70;;;;;;;6.38;69.66;99214.05;105930;1257;69439;-76
2024/03/28 03:13:19;;;;;;;8.40;5.70;;;;;;;6.44;69.41;99208.87;105273;1262;71612;-74
2024/03/28 03:15:54;;;;;;;10.10;6.00;;;;;;;6.50;69.22;99211.31;105940;1259;61710;-75
2024/03/28 03:18:26;;;;;;;8.10;6.30;;;;;;;6.47;69.06;99205.03;105486;1256;61350;-75
2024/03/28 03:21:00;;;;;;;7.20;5.60;;;;;;;6.47;68.80;99203.54;105688;1256;74625;-74
2024/03/28 03:23:35;;;;;;;7.20;6.20;;;;;;;6.46;68.72;99200.11;106066;1257;69323;-72
2024/03/28 03:26:12;;;;;;;8.10;5.70;;;;;;;6.45;68.69;99208.45;106436;1254;72716;-72
2024/03/28 03:36:59;;;;;;;6.50;5.60;;;;;;;6.39;68.00;99201.18;105375;1253;70179;-73
2024/03/28 03:39:30;;;;;;;8.10;5.40;;;;;;;6.38;68.06;99198.80;105749;1254;72067;-75
2024/03/28 03:41:57;;;;;;;6.50;5.80;;;;;;;6.37;68.01;99196.77;105732;1257;61317;-76
2024/03/28 03:44:24;;;;;;;7.10;5.40;;;;;;;6.37;67.93;99191.31;105803;1255;61167;-75
2024/03/28 03:46:51;;;;;;;7.50;5.50;;;;;;;6.39;67.82;99188.69;105847;1253;73363;-75
2024/03/28 03:49:19;;;;;;;8.80;5.50;;;;;;;6.40;67.61;99188.10;105211;1253;68869;-74
2024/03/28 03:51:46;;;;;;;8.40;5.60;;;;;;;6.39;67.37;99181.95;105691;1253;71595;-74
2024/03/28 03:54:13;;;;;;;7.60;5.40;;;;;;;6.39;67.56;99176.05;105399;1253;61603;-75
2024/03/28 03:56:40;;;;;;;8.80;6.20;;;;;;;6.38;67.17;99176.84;105340;1256;61396;-73
2024/03/28 03:59:08;;;;;;;6.80;4.90;;;;;;;6.36;67.12;99171.16;105651;1257;73696;-74
2024/03/28 04:01:35;;;;;;;7.30;5.60;;;;;;;6.35;67.33;99167.43;105645;1256;69059;-76
2024/03/28 04:04:03;;;;;;;6.60;5.10;;;;;;;6.36;67.22;99172.83;105304;1260;72391;-74
2024/03/28 04:06:31;;;;;;;7.70;5.40;;;;;;;6.37;67.15;99164.59;105971;1254;61415;-74
2024/03/28 04:08:58;;;;;;;5.50;4.70;;;;;;;6.38;67.23;99169.79;105460;1257;61406;-75
2024/03/28 04:11:25;;;;;;;7.20;5.50;;;;;;;6.37;66.90;99160.20;105295;1253;74650;-73
2024/03/28 04:13:53;;;;;;;7.70;5.10;;;;;;;6.37;67.05;99154.71;105391;1254;69255;-74
2024/03/28 04:16:20;;;;;;;7.50;5.60;;;;;;;6.38;67.08;99152.87;105662;1259;71362;-73
2024/03/28 04:18:47;;;;;;;7.60;5.40;;;;;;;6.37;66.87;99156.32;107227;1256;61161;-73
2024/03/28 04:21:15;;;;;;;8.30;5.70;;;;;;;6.39;66.67;99147.71;106693;1259;61388;-73
2024/03/28 04:23:42;;;;;;;9.40;6.30;;;;;;;6.38;66.55;99147.81;105556;1253;76016;-74
2024/03/28 04:26:09;;;;;;;7.60;5.50;;;;;;;6.38;66.54;99144.75;105455;1259;72093;-76
2024/03/28 04:28:37;;;;;;;8.40;6.00;;;;;;;6.39;66.36;99151.55;105680;1259;71169;-74
2024/03/28 04:31:04;;;;;;;9.10;6.10;;;;;;;6.39;66.42;99151.35;106057;1253;61113;-76
2024/03/28 04:33:32;;;;;;;9.00;5.90;;;;;;;6.39;66.16;99141.85;105798;1254;61149;-75
2024/03/28 04:35:59;;;;;;;12.20;5.50;;;;;;;6.40;66.25;99146.31;105644;1260;74628;-74
2024/03/28 04:38:26;;;;;;;10.60;6.50;;;;;;;6.41;65.89;99147.13;106006;1253;68748;-75
2024/03/28 04:40:53;;;;;;;9.30;6.00;;;;;;;6.40;65.78;99147.02;105396;1253;72789;-76
2024/03/28 04:43:21;;;;;;;11.00;6.40;;;;;;;6.40;65.76;99141.96;105399;1258;61119;-73
2024/03/28 04:45:48;;;;;;;9.90;5.80;;;;;;;6.40;65.77;99142.89;105495;1259;61157;-74
2024/03/28 04:48:15;;;;;;;13.30;5.50;;;;;;;6.43;65.46;99140.56;105330;1254;74671;-74
2024/03/28 04:50:43;;;;;;;10.70;6.10;;;;;;;6.45;65.16;99140.14;105431;1261;69454;-77
2024/03/28 04:53:10;;;;;;;8.20;5.40;;;;;;;6.47;64.95;99132.60;105497;1254;72621;-76
2024/03/28 04:55:38;;;;;;;9.70;5.40;;;;;;;6.49;64.72;99136.05;105568;1259;61998;-75
2024/03/28 04:58:05;;;;;;;10.80;6.20;;;;;;;6.50;64.83;99131.20;105752;1253;61286;-74
2024/03/28 05:00:33;;;;;;;8.10;5.10;;;;;;;6.53;64.52;99136.82;105755;1257;77392;-77
2024/03/28 05:03:00;;;;;;;11.30;5.20;;;;;;;6.52;64.34;99119.77;105404;1259;68859;-74
2024/03/28 05:05:27;;;;;;;8.10;5.00;;;;;;;6.54;64.42;99119.98;105386;1253;71728;-74
2024/03/28 05:07:54;;;;;;;8.80;5.20;;;;;;;6.58;64.35;99108.11;105282;1260;61218;-75
2024/03/28 05:10:22;;;;;;;7.60;5.00;;;;;;;6.63;64.47;99105.86;105731;1254;61206;-75
2024/03/28 05:12:49;;;;;;;10.30;5.10;;;;;;;6.66;64.03;99110.78;106250;1253;74052;-75
2024/03/28 05:15:16;;;;;;;8.10;4.80;;;;;;;6.68;63.72;99101.10;106795;1259;68743;-75
2024/03/28 05:17:44;;;;;;;7.40;4.90;;;;;;;6.70;63.59;99100.88;105609;1257;279535;-75
2024/03/28 05:21:15;;;;;;;8.00;5.10;;;;;;;6.76;63.28;99094.66;102352;1293;602523;-77
2024/03/28 05:23:43;;;;;;;6.70;5.00;;;;;;;6.80;63.31;99093.66;105270;1270;59858;-74
2024/03/28 05:26:09;;;;;;;8.50;4.60;;;;;;;6.83;63.35;99095.71;104937;1267;59988;-73
2024/03/28 05:28:36;;;;;;;9.20;5.20;;;;;;;6.82;63.18;99098.38;104944;1269;73235;-75
2024/03/28 05:31:12;;;;;;;8.60;4.90;;;;;;;6.82;62.80;99097.33;105609;1258;70643;-75
2024/03/28 05:33:39;;;;;;;11.20;5.70;;;;;;;6.84;62.96;99097.16;105565;1262;193627;-74
2024/03/28 05:36:06;;;;;;;7.90;4.30;;;;;;;6.85;62.61;99099.64;105822;1255;59697;-77
2024/03/28 05:38:32;;;;;;;9.30;4.80;;;;;;;6.87;62.45;99095.05;106186;1257;60136;-76
2024/03/28 05:40:59;;;;;;;8.50;4.70;;;;;;;6.89;62.28;99089.03;106019;1260;59877;-75
2024/03/28 05:43:26;;;;;;;9.20;4.60;;;;;;;6.92;62.02;99093.20;106272;1260;69447;-74
2024/03/28 05:45:52;;;;;;;8.10;4.30;;;;;;;6.94;62.01;99090.16;106783;1254;71526;-73
2024/03/28 05:48:19;;;;;;;7.40;4.60;;;;;;;6.96;61.88;99089.45;105831;1254;60463;-74
2024/03/28 05:50:46;;;;;;;7.20;4.60;;;;;;;6.98;61.72;99079.48;105982;1260;60542;-76
2024/03/28 05:53:14;;;;;;;8.20;5.00;;;;;;;7.01;61.99;99079.52;106028;1259;60408;-76
2024/03/28 05:55:41;;;;;;;9.70;4.60;;;;;;;7.04;61.83;99075.80;106027;1254;70378;-74
2024/03/28 05:58:08;;;;;;;8.20;4.80;;;;;;;7.09;61.28;99080.30;105672;1254;71673;-74
2024/03/28 06:00:36;;;;;;;6.60;4.80;;;;;;;7.14;61.25;99071.20;105699;1260;60543;-73
2024/03/28 06:03:03;;;;;;;9.30;4.90;;;;;;;7.16;60.97;99064.20;105727;1257;60446;-74
2024/03/28 06:05:31;;;;;;;9.10;4.90;;;;;;;7.22;60.94;99074.16;106629;1255;74084;-74
2024/03/28 06:07:58;;;;;;;9.60;5.00;;;;;;;7.28;60.87;99072.27;107796;1254;68842;-75
2024/03/28 06:10:24;;;;;;;6.00;4.20;;;;;;;7.37;60.69;99067.32;106873;1258;71471;-76
2024/03/28 06:12:51;;;;;;;5.50;4.10;;;;;;;7.43;60.41;99055.02;105840;1257;60545;-74
2024/03/28 06:15:17;;;;;;;8.20;4.90;;;;;;;7.49;60.53;99064.03;105988;1254;60531;-76
2024/03/28 06:17:44;;;;;;;8.10;4.20;;;;;;;7.54;59.83;99063.74;106072;1253;73687;-76
2024/03/28 06:20:11;;;;;;;7.50;4.40;;;;;;;7.53;60.07;99058.52;106089;1254;71122;-76
2024/03/28 06:22:38;;;;;;;6.20;4.20;;;;;;;7.52;59.79;99051.05;106165;1255;73004;-76
2024/03/28 06:25:06;;;;;;;13.30;4.60;;;;;;;7.51;60.12;99053.06;106132;1257;60513;-75
2024/03/28 06:27:32;;;;;;;6.20;3.90;;;;;;;7.54;60.01;99049.96;106028;1254;60418;-75
2024/03/28 06:29:59;;;;;;;8.60;4.50;;;;;;;7.57;59.45;99046.59;105799;1251;73870;-74
2024/03/28 06:32:29;;;;;;;7.20;4.30;;;;;;;7.61;59.60;99051.61;105888;1254;71171;-74
2024/03/28 06:34:57;;;;;;;7.00;4.30;;;;;;;7.64;58.89;99039.66;105615;1257;71391;-75
2024/03/28 06:37:24;;;;;;;7.00;4.60;;;;;;;7.69;59.30;99040.73;106034;1257;60468;-75
2024/03/28 06:39:51;;;;;;;9.20;4.20;;;;;;;7.73;59.49;99037.49;105992;1257;60338;-74
2024/03/28 06:42:17;;;;;;;5.60;4.10;;;;;;;7.78;59.41;99028.14;106076;1260;74577;-73
2024/03/28 06:44:46;;;;;;;5.30;3.50;;;;;;;7.85;59.34;99020.38;106074;1255;69954;-75
2024/03/28 06:47:13;;;;;;;8.50;4.90;;;;;;;7.91;59.24;99015.64;105664;1257;71079;-73
2024/03/28 06:49:40;;;;;;;12.30;4.70;;;;;;;7.99;59.30;99015.79;105645;1255;60514;-75
2024/03/28 06:52:07;;;;;;;5.70;4.70;;;;;;;8.06;58.47;99014.45;106321;1253;60515;-72
2024/03/28 06:54:34;;;;;;;6.90;4.40;;;;;;;8.08;58.48;99003.64;106350;1256;72914;-75
2024/03/28 06:57:01;;;;;;;7.40;4.20;;;;;;;8.14;58.17;99008.74;106039;1257;72079;-75
2024/03/28 06:59:28;;;;;;;6.50;4.40;;;;;;;8.17;58.23;98993.19;106335;1253;72681;-74
2024/03/28 07:01:55;;;;;;;8.50;4.90;;;;;;;8.23;57.87;98991.85;108322;1255;61906;-74
2024/03/28 07:04:21;;;;;;;5.10;4.00;;;;;;;8.32;57.58;99001.11;107576;1256;59097;-74
2024/03/28 07:06:49;;;;;;;7.10;4.10;;;;;;;8.38;57.70;98992.84;106605;1256;74899;-76
2024/03/28 07:09:16;;;;;;;7.30;4.10;;;;;;;8.42;57.57;98993.73;106260;1257;69202;-76
2024/03/28 07:11:45;;;;;;;6.90;4.40;;;;;;;8.50;57.40;98990.56;106469;1260;70230;-79
2024/03/28 07:14:14;;;;;;;6.20;4.20;;;;;;;8.58;57.65;98986.98;106374;1257;60754;-79
2024/03/28 07:16:41;;;;;;;6.70;4.40;;;;;;;8.71;57.21;98980.30;106651;1255;60729;-72
2024/03/28 07:19:08;;;;;;;7.20;4.30;;;;;;;8.83;56.82;98979.06;106083;1254;72761;-73
2024/03/28 07:21:34;;;;;;;6.70;3.70;;;;;;;8.96;56.63;98973.25;106161;1254;69323;-74
2024/03/28 07:24:01;;;;;;;7.40;5.20;;;;;;;9.09;56.73;98969.08;106012;1257;70515;-73
2024/03/28 07:26:28;;;;;;;7.60;4.70;;;;;;;9.22;56.27;98979.38;106189;1254;60731;-73
2024/03/28 07:28:55;;;;;;;7.00;3.70;;;;;;;9.34;55.99;98970.27;106251;1255;60300;-75
2024/03/28 07:31:22;;;;;;;11.00;4.40;;;;;;;9.45;55.22;98964.55;106162;1256;74055;-77
2024/03/28 07:33:49;;;;;;;9.90;4.40;;;;;;;9.57;54.99;98961.56;106097;1260;70358;-75
2024/03/28 07:36:16;;;;;;;5.10;3.40;;;;;;;9.72;54.67;98964.46;106186;1264;71528;-74
2024/03/28 07:38:45;;;;;;;6.30;3.20;;;;;;;9.88;53.97;98963.88;106250;1253;60548;-76
2024/03/28 07:41:12;;;;;;;8.20;3.00;;;;;;;10.01;52.69;98960.55;106184;1254;61868;-75
2024/03/28 07:43:39;;;;;;;5.10;2.90;;;;;;;10.14;51.83;98968.23;106075;1257;72606;-75
2024/03/28 07:46:05;;;;;;;4.80;3.10;;;;;;;10.29;51.45;98963.41;106014;1257;60554;-74
2024/03/28 07:48:35;;;;;;;6.60;2.60;;;;;;;10.44;51.07;98972.27;106042;1252;73678;-74
2024/03/28 07:51:02;;;;;;;3.60;2.50;;;;;;;10.59;50.71;98964.56;106175;1256;60805;-76
2024/03/28 07:53:31;;;;;;;8.20;3.10;;;;;;;10.73;50.21;98966.89;106132;1256;60402;-78
2024/03/28 07:55:59;;;;;;;7.10;2.50;;;;;;;10.82;49.84;98969.68;107883;1252;74225;-77
2024/03/28 07:58:26;;;;;;;7.90;3.00;;;;;;;10.88;49.99;98959.11;109245;1254;68426;-76
2024/03/28 08:01:01;;;;;;;5.40;2.90;;;;;;;11.02;49.86;98964.52;107168;1254;71318;-75
2024/03/28 08:03:29;;;;;;;3.90;3.10;;;;;;;11.11;49.81;98959.33;106331;1256;60472;-77
2024/03/28 08:05:57;;;;;;;4.80;2.60;;;;;;;11.16;49.62;98955.85;106247;1253;60440;-74
2024/03/28 08:08:24;;;;;;;6.60;2.80;;;;;;;11.19;49.94;98964.61;106257;1254;73797;-77
2024/03/28 08:10:51;;;;;;;4.60;2.60;;;;;;;11.25;49.97;98957.21;106360;1260;67695;-76
2024/03/28 08:13:18;;;;;;;5.50;2.80;;;;;;;11.26;49.85;98960.42;106337;1254;72634;-77
2024/03/28 08:15:45;;;;;;;4.20;3.00;;;;;;;11.30;50.09;98957.20;106203;1254;60432;-79
2024/03/28 08:18:12;;;;;;;10.00;3.10;;;;;;;11.36;50.10;98948.70;106217;1253;60461;-76
2024/03/28 08:20:39;;;;;;;5.00;3.10;;;;;;;11.45;50.32;98947.49;106155;1255;73705;-75
2024/03/28 08:23:06;;;;;;;4.70;2.90;;;;;;;11.55;49.91;98948.84;106237;1255;68874;-75
2024/03/28 08:25:33;;;;;;;7.20;2.80;;;;;;;11.56;49.93;98946.76;106223;1257;70213;-75
2024/03/28 08:28:00;;;;;;;4.90;2.60;;;;;;;11.58;50.08;98934.09;106082;1258;60444;-74
2024/03/28 08:30:26;;;;;;;4.20;2.70;;;;;;;11.65;50.14;98944.69;106283;1257;61501;-74
2024/03/28 08:32:55;;;;;;;12.00;2.70;;;;;;;11.74;50.29;98933.42;106205;1257;74599;-75
2024/03/28 08:35:22;;;;;;;4.50;2.70;;;;;;;11.89;49.99;98941.23;107491;1256;70157;-74
2024/03/28 08:37:49;;;;;;;5.80;2.60;;;;;;;12.02;49.86;98933.15;106760;1257;73166;-77
2024/03/28 08:40:16;;;;;;;4.90;2.90;;;;;;;12.17;49.71;98933.52;107499;1254;62137;-80
2024/03/28 08:42:43;;;;;;;6.80;2.80;;;;;;;12.29;49.59;98947.74;107307;1259;60472;-79
2024/03/28 08:45:13;;;;;;;6.50;3.00;;;;;;;12.37;49.74;98932.29;106468;1257;72937;-76
2024/03/28 08:47:43;;;;;;;5.80;2.80;;;;;;;12.49;49.72;98931.30;106367;1257;70438;-77
2024/03/28 08:50:12;;;;;;;6.10;3.10;;;;;;;12.65;49.46;98936.14;106727;1257;71243;-78
2024/03/28 08:52:39;;;;;;;4.60;2.70;;;;;;;12.72;49.35;98932.88;109061;1256;60405;-75
2024/03/28 08:55:10;;;;;;;4.00;3.30;;;;;;;12.80;49.50;98923.14;107557;1260;59252;-77
2024/03/28 08:57:38;;;;;;;5.40;3.00;;;;;;;12.96;49.33;98934.06;106483;1256;75093;-76
2024/03/28 09:00:10;;;;;;;2.80;2.40;;;;;;;13.08;49.49;98919.27;107865;1254;70345;-76
2024/03/28 09:02:38;;;;;;;5.80;2.90;;;;;;;13.26;49.50;98904.80;108941;1254;71908;-79
2024/03/28 09:05:05;;;;;;;6.10;3.10;;;;;;;13.48;48.87;98914.84;109090;1253;59266;-77
2024/03/28 09:07:33;;;;;;;4.90;3.30;;;;;;;13.63;48.78;98897.18;108799;1254;59201;-79
2024/03/28 09:10:00;;;;;;;9.30;3.10;;;;;;;13.81;48.88;98889.75;108385;1254;72372;-79
2024/03/28 09:12:27;;;;;;;5.60;3.30;;;;;;;14.05;48.59;98897.84;106364;1255;72073;-79
2024/03/28 09:14:55;;;;;;;7.60;3.30;;;;;;;14.31;48.11;98886.42;106582;1255;71381;-81
2024/03/28 09:17:22;;;;;;;6.60;2.90;;;;;;;14.58;47.74;98884.58;106585;1255;60417;-81
2024/03/28 09:19:52;;;;;;;4.80;2.90;;;;;;;14.90;47.54;98889.18;106738;1255;60533;-81
2024/03/28 09:22:21;;;;;;;5.80;3.00;;;;;;;15.27;46.81;98888.85;106302;1255;74093;-81
2024/03/28 09:24:47;;;;;;;5.00;3.10;;;;;;;15.58;46.36;98878.30;106424;1259;70131;-80
2024/03/28 09:27:14;;;;;;;5.40;3.50;;;;;;;15.92;46.14;98874.05;106242;1257;73733;-77
2024/03/28 09:29:41;;;;;;;5.90;2.90;;;;;;;16.38;45.72;98887.00;106310;1258;61321;-77
2024/03/28 09:32:08;;;;;;;6.10;3.30;;;;;;;16.88;45.10;98880.35;106392;1257;61250;-77
2024/03/28 09:34:37;;;;;;;6.00;3.50;;;;;;;17.44;44.16;98873.98;106384;1257;74844;-76
2024/03/28 09:37:07;;;;;;;4.80;3.00;;;;;;;17.96;43.53;98875.55;106632;1254;70444;-78
2024/03/28 09:39:34;;;;;;;6.00;3.40;;;;;;;18.48;43.00;98876.36;106316;1254;70763;-80
2024/03/28 09:42:02;;;;;;;6.50;2.90;;;;;;;19.00;41.70;98870.51;106363;1257;61250;-78
2024/03/28 09:44:30;;;;;;;5.90;3.00;;;;;;;19.30;40.95;98865.87;106306;1260;61196;-80
2024/03/28 09:46:58;;;;;;;5.50;3.10;;;;;;;19.57;40.80;98864.31;107558;1254;77272;-79
2024/03/28 09:49:26;;;;;;;7.70;3.60;;;;;;;19.89;40.56;98861.32;107526;1254;70290;-81
2024/03/28 09:51:56;;;;;;;6.00;3.40;;;;;;;20.28;39.87;98855.84;107111;1254;71347;-79
2024/03/28 09:54:23;;;;;;;6.80;3.40;;;;;;;20.57;39.33;98853.71;106676;1256;61115;-80
2024/03/28 09:56:54;;;;;;;4.60;3.00;;;;;;;20.80;39.26;98849.90;106463;1254;61262;-80
2024/03/28 09:59:21;;;;;;;4.50;3.30;;;;;;;21.15;39.18;98848.39;106600;1264;74162;-85
2024/03/28 10:01:52;;;;;;;5.90;3.30;;;;;;;21.55;38.46;98844.27;107381;1258;70289;-84
2024/03/28 10:04:19;;;;;;;5.00;2.90;;;;;;;21.84;38.36;98839.56;106433;1257;73743;-83
2024/03/28 10:06:49;;;;;;;5.60;3.40;;;;;;;22.20;38.26;98840.35;106590;1253;61636;-80
2024/03/28 10:09:17;;;;;;;6.10;2.90;;;;;;;22.62;37.03;98844.95;108637;1254;59337;-89
2024/03/28 10:11:53;;;;;;;8.40;3.40;;;;;;;22.74;37.02;98838.20;107376;1260;73400;-79
2024/03/28 10:14:26;;;;;;;5.50;3.00;;;;;;;22.81;37.35;98832.83;106101;1257;69076;-79
2024/03/28 10:17:01;;;;;;;5.20;2.80;;;;;;;23.14;36.67;98831.49;108436;1257;71812;-77
2024/03/28 10:19:29;;;;;;;5.90;3.60;;;;;;;23.24;36.44;98835.17;106280;1254;61337;-77
2024/03/28 10:22:10;;;;;;;7.60;3.20;;;;;;;23.29;36.46;98827.58;106031;1256;61320;-73
2024/03/28 10:24:45;;;;;;;4.30;3.00;;;;;;;23.45;36.31;98832.73;106269;1258;74807;-77
2024/03/28 10:27:14;;;;;;;7.00;2.80;;;;;;;23.61;36.17;98819.84;106155;1254;70482;-78
2024/03/28 10:29:51;;;;;;;6.50;3.80;;;;;;;23.84;36.03;98818.91;106396;1251;73894;-80
2024/03/28 10:32:18;;;;;;;5.80;3.50;;;;;;;24.04;35.81;98816.86;106276;1256;61325;-81
2024/03/28 10:34:49;;;;;;;7.60;3.40;;;;;;;24.26;35.53;98811.16;106409;1257;61914;-80
2024/03/28 10:37:19;;;;;;;6.80;3.30;;;;;;;24.46;35.41;98805.34;106511;1256;74275;-78
2024/03/28 10:39:48;;;;;;;3.90;3.00;;;;;;;24.66;35.34;98804.82;106645;1252;69439;-78
2024/03/28 10:42:16;;;;;;;6.90;3.10;;;;;;;24.86;35.07;98801.02;107503;1254;73025;-76
2024/03/28 10:44:44;;;;;;;4.80;3.00;;;;;;;25.10;34.89;98803.35;108309;1251;61228;-77
2024/03/28 10:47:12;;;;;;;3.70;2.80;;;;;;;25.32;34.79;98798.05;107689;1251;61228;-78
2024/03/28 10:49:53;;;;;;;7.00;3.40;;;;;;;25.48;34.24;98801.08;106747;1256;73471;-78
2024/03/28 10:52:29;;;;;;;7.50;3.40;;;;;;;25.48;34.29;98796.78;106705;1251;69045;-78
2024/03/28 10:55:03;;;;;;;6.60;3.10;;;;;;;25.59;34.38;98791.77;106803;1257;70602;-80
2024/03/28 10:57:34;;;;;;;7.00;3.00;;;;;;;25.83;34.13;98795.38;106959;1251;61254;-80
2024/03/28 11:00:01;;;;;;;8.00;3.40;;;;;;;25.96;33.79;98788.52;107193;1254;61202;-80
2024/03/28 11:02:29;;;;;;;5.80;3.20;;;;;;;25.85;33.78;98777.13;106684;1251;75870;-78
2024/03/28 11:04:56;;;;;;;6.40;3.50;;;;;;;25.74;33.94;98777.06;106492;1256;70503;-78
2024/03/28 11:07:24;;;;;;;3.80;2.80;;;;;;;25.79;34.04;98769.16;106438;1251;71753;-76
2024/03/28 11:09:53;;;;;;;5.40;3.40;;;;;;;25.89;34.07;98753.15;106402;1254;61952;-78
2024/03/28 11:12:20;;;;;;;7.40;3.40;;;;;;;25.85;34.14;98746.84;106475;1256;61195;-78
2024/03/28 11:14:58;;;;;;;6.60;3.40;;;;;;;25.60;34.15;98749.83;106643;1259;74910;-79
2024/03/28 11:17:25;;;;;;;7.70;3.70;;;;;;;25.44;34.46;98748.71;106634;1256;71446;-79
2024/03/28 11:20:03;;;;;;;7.30;3.50;;;;;;;25.60;34.21;98749.51;107111;1251;72338;-78
2024/03/28 11:22:30;;;;;;;5.50;3.10;;;;;;;25.64;33.88;98743.09;107389;1253;61612;-81
2024/03/28 11:24:58;;;;;;;7.50;3.40;;;;;;;25.40;34.24;98737.46;107029;1251;61297;-79
2024/03/28 11:27:24;;;;;;;8.20;3.50;;;;;;;25.40;34.43;98741.42;106808;1251;75407;-78
2024/03/28 11:29:53;;;;;;;10.00;3.40;;;;;;;25.55;34.23;98742.28;107146;1251;69585;-84
2024/03/28 11:32:23;;;;;;;5.60;2.80;;;;;;;25.56;34.09;98731.70;106868;1254;73758;-82
2024/03/28 11:34:50;;;;;;;6.20;3.50;;;;;;;25.58;34.25;98729.41;107335;1254;61154;-82
2024/03/28 11:37:20;;;;;;;5.80;3.00;;;;;;;25.73;33.91;98715.55;107387;1251;61183;-83
2024/03/28 11:39:48;;;;;;;6.70;3.90;;;;;;;25.83;33.93;98717.79;108784;1251;74630;-82
2024/03/28 11:42:18;;;;;;;6.50;3.20;;;;;;;25.90;33.64;98709.17;109092;1251;70341;-81
2024/03/28 11:45:05;;;;;;;3.90;3.20;;;;;;;25.98;33.77;98698.52;108565;1253;72842;-81
2024/03/28 11:47:34;;;;;;;7.50;3.60;;;;;;;26.11;33.52;98697.41;107953;1253;61349;-82
2024/03/28 11:50:05;;;;;;;6.20;3.80;;;;;;;26.12;33.50;98704.09;107303;1252;61080;-86
2024/03/28 11:52:39;;;;;;;9.80;4.60;;;;;;;26.00;33.52;98706.43;107405;1256;75075;-84